sensor_id;sensor_type;location;lat;lon;timestamp;temperature;humidity
53643;DHT22;39546;45.534;12.048;2023-05-31T00:01:23;23.40;78.20
53643;DHT22;39546;45.534;12.048;2023-05-31T00:07:25;23.30;78.90
53643;DHT22;39546;45.534;12.048;2023-05-31T00:13:28;23.30;78.80
53643;DHT22;39546;45.534;12.048;2023-05-31T00:19:30;23.30;78.90
53643;DHT22;39546;45.534;12.048;2023-05-31T00:25:32;23.30;79.20
53643;DHT22;39546;45.534;12.048;2023-05-31T00:31:34;23.20;79.30
53643;DHT22;39546;45.534;12.048;2023-05-31T00:37:36;23.00;78.90
53643;DHT22;39546;45.534;12.048;2023-05-31T00:43:39;23.10;79.80
53643;DHT22;39546;45.534;12.048;2023-05-31T00:49:41;23.10;79.90
53643;DHT22;39546;45.534;12.048;2023-05-31T00:55:43;23.10;80.00
53643;DHT22;39546;45.534;12.048;2023-05-31T01:01:45;23.10;79.70
53643;DHT22;39546;45.534;12.048;2023-05-31T01:07:48;23.10;80.10
53643;DHT22;39546;45.534;12.048;2023-05-31T01:20:15;22.90;79.80
53643;DHT22;39546;45.534;12.048;2023-05-31T01:26:47;22.90;80.00
53643;DHT22;39546;45.534;12.048;2023-05-31T01:32:51;22.90;79.50
53643;DHT22;39546;45.534;12.048;2023-05-31T01:38:54;22.90;80.20
53643;DHT22;39546;45.534;12.048;2023-05-31T01:44:56;22.90;80.60
53643;DHT22;39546;45.534;12.048;2023-05-31T01:50:59;22.90;80.80
53643;DHT22;39546;45.534;12.048;2023-05-31T01:57:03;22.90;81.20
53643;DHT22;39546;45.534;12.048;2023-05-31T02:03:07;23.00;81.10
53643;DHT22;39546;45.534;12.048;2023-05-31T02:09:10;23.10;81.30
53643;DHT22;39546;45.534;12.048;2023-05-31T02:15:14;23.10;81.00
53643;DHT22;39546;45.534;12.048;2023-05-31T02:21:16;23.10;80.90
53643;DHT22;39546;45.534;12.048;2023-05-31T02:27:20;23.00;81.10
53643;DHT22;39546;45.534;12.048;2023-05-31T02:33:23;23.00;81.40
53643;DHT22;39546;45.534;12.048;2023-05-31T02:39:25;23.00;81.30
53643;DHT22;39546;45.534;12.048;2023-05-31T02:45:27;22.90;81.30
53643;DHT22;39546;45.534;12.048;2023-05-31T02:51:30;22.80;81.00
53643;DHT22;39546;45.534;12.048;2023-05-31T02:57:33;22.80;81.30
53643;DHT22;39546;45.534;12.048;2023-05-31T03:03:36;22.70;80.50
53643;DHT22;39546;45.534;12.048;2023-05-31T03:09:38;22.50;80.40
53643;DHT22;39546;45.534;12.048;2023-05-31T03:15:41;22.60;81.20
53643;DHT22;39546;45.534;12.048;2023-05-31T03:21:43;22.60;81.30
53643;DHT22;39546;45.534;12.048;2023-05-31T03:27:45;22.60;81.20
53643;DHT22;39546;45.534;12.048;2023-05-31T03:33:47;22.70;81.10
53643;DHT22;39546;45.534;12.048;2023-05-31T03:39:50;22.70;81.20
53643;DHT22;39546;45.534;12.048;2023-05-31T03:45:53;22.80;81.20
53643;DHT22;39546;45.534;12.048;2023-05-31T03:51:56;22.80;81.00
53643;DHT22;39546;45.534;12.048;2023-05-31T03:57:58;22.80;80.80
53643;DHT22;39546;45.534;12.048;2023-05-31T04:04:00;22.80;80.80
53643;DHT22;39546;45.534;12.048;2023-05-31T04:10:03;22.80;80.50
53643;DHT22;39546;45.534;12.048;2023-05-31T04:16:05;22.90;80.60
53643;DHT22;39546;45.534;12.048;2023-05-31T04:22:07;22.90;80.60
53643;DHT22;39546;45.534;12.048;2023-05-31T04:28:10;23.00;80.90
53643;DHT22;39546;45.534;12.048;2023-05-31T04:34:14;22.90;80.90
53643;DHT22;39546;45.534;12.048;2023-05-31T04:40:21;22.90;80.80
53643;DHT22;39546;45.534;12.048;2023-05-31T04:46:23;22.90;81.00
53643;DHT22;39546;45.534;12.048;2023-05-31T04:52:27;22.90;80.70
53643;DHT22;39546;45.534;12.048;2023-05-31T04:58:31;23.00;81.20
53643;DHT22;39546;45.534;12.048;2023-05-31T05:04:33;23.00;80.90
53643;DHT22;39546;45.534;12.048;2023-05-31T05:10:35;23.00;80.60
53643;DHT22;39546;45.534;12.048;2023-05-31T05:16:37;23.10;80.70
53643;DHT22;39546;45.534;12.048;2023-05-31T05:22:41;23.10;80.60
53643;DHT22;39546;45.534;12.048;2023-05-31T05:28:44;23.20;80.60
53643;DHT22;39546;45.534;12.048;2023-05-31T05:34:46;23.20;80.80
53643;DHT22;39546;45.534;12.048;2023-05-31T05:40:49;23.30;80.70
53643;DHT22;39546;45.534;12.048;2023-05-31T05:46:51;23.50;80.40
53643;DHT22;39546;45.534;12.048;2023-05-31T05:52:53;23.50;80.90
53643;DHT22;39546;45.534;12.048;2023-05-31T05:58:56;23.60;81.00
53643;DHT22;39546;45.534;12.048;2023-05-31T06:05:01;23.80;80.70
53643;DHT22;39546;45.534;12.048;2023-05-31T06:11:03;23.80;80.50
53643;DHT22;39546;45.534;12.048;2023-05-31T06:17:12;23.90;80.80
53643;DHT22;39546;45.534;12.048;2023-05-31T06:23:15;24.00;81.00
53643;DHT22;39546;45.534;12.048;2023-05-31T06:29:17;24.10;80.70
53643;DHT22;39546;45.534;12.048;2023-05-31T06:35:22;24.20;80.60
53643;DHT22;39546;45.534;12.048;2023-05-31T06:41:25;24.20;79.70
53643;DHT22;39546;45.534;12.048;2023-05-31T06:47:28;24.30;79.70
53643;DHT22;39546;45.534;12.048;2023-05-31T06:53:34;24.40;78.30
53643;DHT22;39546;45.534;12.048;2023-05-31T06:59:38;24.30;78.00
53643;DHT22;39546;45.534;12.048;2023-05-31T07:05:40;24.50;78.10
53643;DHT22;39546;45.534;12.048;2023-05-31T07:11:44;24.70;77.60
53643;DHT22;39546;45.534;12.048;2023-05-31T07:17:47;24.80;77.10
53643;DHT22;39546;45.534;12.048;2023-05-31T07:23:50;24.80;75.00
53643;DHT22;39546;45.534;12.048;2023-05-31T07:29:54;24.80;74.60
53643;DHT22;39546;45.534;12.048;2023-05-31T07:36:00;24.80;74.70
53643;DHT22;39546;45.534;12.048;2023-05-31T07:42:02;25.00;74.80
53643;DHT22;39546;45.534;12.048;2023-05-31T07:48:04;24.90;74.20
53643;DHT22;39546;45.534;12.048;2023-05-31T07:54:06;25.00;73.30
53643;DHT22;39546;45.534;12.048;2023-05-31T08:00:10;25.20;72.70
53643;DHT22;39546;45.534;12.048;2023-05-31T08:06:14;25.20;71.00
53643;DHT22;39546;45.534;12.048;2023-05-31T08:12:18;25.30;69.70
53643;DHT22;39546;45.534;12.048;2023-05-31T08:18:21;25.30;69.80
53643;DHT22;39546;45.534;12.048;2023-05-31T08:24:23;25.40;69.40
53643;DHT22;39546;45.534;12.048;2023-05-31T08:30:25;25.50;68.70
53643;DHT22;39546;45.534;12.048;2023-05-31T08:36:27;25.60;67.60
53643;DHT22;39546;45.534;12.048;2023-05-31T08:42:41;25.70;67.40
53643;DHT22;39546;45.534;12.048;2023-05-31T08:49:00;25.80;69.10
53643;DHT22;39546;45.534;12.048;2023-05-31T08:55:02;25.80;67.40
53643;DHT22;39546;45.534;12.048;2023-05-31T09:01:07;26.00;67.50
53643;DHT22;39546;45.534;12.048;2023-05-31T09:07:10;26.10;66.00
53643;DHT22;39546;45.534;12.048;2023-05-31T09:13:12;26.20;66.20
53643;DHT22;39546;45.534;12.048;2023-05-31T09:19:14;26.30;66.30
53643;DHT22;39546;45.534;12.048;2023-05-31T09:25:16;26.40;64.10
53643;DHT22;39546;45.534;12.048;2023-05-31T09:31:19;26.60;65.40
53643;DHT22;39546;45.534;12.048;2023-05-31T09:37:22;26.70;64.60
53643;DHT22;39546;45.534;12.048;2023-05-31T09:43:25;26.80;65.00
53643;DHT22;39546;45.534;12.048;2023-05-31T09:49:27;26.90;63.20
53643;DHT22;39546;45.534;12.048;2023-05-31T09:55:39;27.00;61.90
53643;DHT22;39546;45.534;12.048;2023-05-31T10:01:45;27.10;61.40
53643;DHT22;39546;45.534;12.048;2023-05-31T10:07:50;27.30;62.60
53643;DHT22;39546;45.534;12.048;2023-05-31T10:13:56;27.30;61.60
53643;DHT22;39546;45.534;12.048;2023-05-31T10:27:06;27.50;64.40
53643;DHT22;39546;45.534;12.048;2023-05-31T10:33:12;27.70;62.90
53643;DHT22;39546;45.534;12.048;2023-05-31T10:39:27;27.70;61.40
53643;DHT22;39546;45.534;12.048;2023-05-31T10:45:38;27.80;61.40
53643;DHT22;39546;45.534;12.048;2023-05-31T10:51:45;28.10;59.10
53643;DHT22;39546;45.534;12.048;2023-05-31T10:57:54;28.40;59.10
53643;DHT22;39546;45.534;12.048;2023-05-31T11:03:57;28.60;58.10
53643;DHT22;39546;45.534;12.048;2023-05-31T11:09:59;28.70;60.00
53643;DHT22;39546;45.534;12.048;2023-05-31T11:16:01;28.80;56.70
53643;DHT22;39546;45.534;12.048;2023-05-31T11:22:13;29.00;58.80
53643;DHT22;39546;45.534;12.048;2023-05-31T11:28:17;28.80;57.20
53643;DHT22;39546;45.534;12.048;2023-05-31T11:34:25;28.80;61.00
53643;DHT22;39546;45.534;12.048;2023-05-31T11:40:28;28.60;60.70
53643;DHT22;39546;45.534;12.048;2023-05-31T11:46:32;28.60;59.30
53643;DHT22;39546;45.534;12.048;2023-05-31T11:52:36;29.00;60.10
53643;DHT22;39546;45.534;12.048;2023-05-31T11:58:46;29.20;56.10
53643;DHT22;39546;45.534;12.048;2023-05-31T12:04:48;29.40;56.90
53643;DHT22;39546;45.534;12.048;2023-05-31T12:10:50;29.50;58.90
53643;DHT22;39546;45.534;12.048;2023-05-31T12:16:53;29.60;57.80
53643;DHT22;39546;45.534;12.048;2023-05-31T12:23:12;29.40;58.80
53643;DHT22;39546;45.534;12.048;2023-05-31T12:29:16;28.90;58.40
53643;DHT22;39546;45.534;12.048;2023-05-31T12:35:18;29.10;58.80
53643;DHT22;39546;45.534;12.048;2023-05-31T12:41:21;29.20;56.50
53643;DHT22;39546;45.534;12.048;2023-05-31T12:47:24;29.00;57.80
53643;DHT22;39546;45.534;12.048;2023-05-31T12:53:26;28.80;57.90
53643;DHT22;39546;45.534;12.048;2023-05-31T12:59:29;28.80;58.10
53643;DHT22;39546;45.534;12.048;2023-05-31T13:05:32;28.60;57.40
53643;DHT22;39546;45.534;12.048;2023-05-31T13:11:34;28.50;61.00
53643;DHT22;39546;45.534;12.048;2023-05-31T13:17:37;28.30;59.40
53643;DHT22;39546;45.534;12.048;2023-05-31T13:23:39;28.60;60.00
53643;DHT22;39546;45.534;12.048;2023-05-31T13:29:41;28.60;61.10
53643;DHT22;39546;45.534;12.048;2023-05-31T13:35:43;28.60;60.00
53643;DHT22;39546;45.534;12.048;2023-05-31T13:41:45;28.70;60.70
53643;DHT22;39546;45.534;12.048;2023-05-31T13:47:50;28.80;61.90
53643;DHT22;39546;45.534;12.048;2023-05-31T13:53:52;28.60;62.30
53643;DHT22;39546;45.534;12.048;2023-05-31T13:59:54;28.60;60.10
53643;DHT22;39546;45.534;12.048;2023-05-31T14:05:59;28.50;61.20
53643;DHT22;39546;45.534;12.048;2023-05-31T14:12:01;28.30;64.50
53643;DHT22;39546;45.534;12.048;2023-05-31T14:18:03;28.10;63.90
53643;DHT22;39546;45.534;12.048;2023-05-31T14:24:05;28.00;62.50
53643;DHT22;39546;45.534;12.048;2023-05-31T14:30:08;28.00;61.80
53643;DHT22;39546;45.534;12.048;2023-05-31T14:36:10;28.10;61.60
53643;DHT22;39546;45.534;12.048;2023-05-31T14:42:12;28.00;62.80
53643;DHT22;39546;45.534;12.048;2023-05-31T14:48:14;27.90;62.80
53643;DHT22;39546;45.534;12.048;2023-05-31T14:54:17;27.90;61.80
53643;DHT22;39546;45.534;12.048;2023-05-31T15:00:19;27.80;61.70
53643;DHT22;39546;45.534;12.048;2023-05-31T15:06:22;27.80;62.30
53643;DHT22;39546;45.534;12.048;2023-05-31T15:12:26;27.80;61.90
53643;DHT22;39546;45.534;12.048;2023-05-31T15:18:28;27.80;63.00
53643;DHT22;39546;45.534;12.048;2023-05-31T15:24:30;27.80;60.60
53643;DHT22;39546;45.534;12.048;2023-05-31T15:30:32;27.90;58.60
53643;DHT22;39546;45.534;12.048;2023-05-31T15:36:35;27.90;58.80
53643;DHT22;39546;45.534;12.048;2023-05-31T15:42:37;27.90;59.60
53643;DHT22;39546;45.534;12.048;2023-05-31T15:48:39;28.00;60.20
53643;DHT22;39546;45.534;12.048;2023-05-31T15:54:42;27.90;60.50
53643;DHT22;39546;45.534;12.048;2023-05-31T16:00:44;28.00;59.60
53643;DHT22;39546;45.534;12.048;2023-05-31T16:06:46;28.30;58.70
53643;DHT22;39546;45.534;12.048;2023-05-31T16:12:48;28.10;60.00
53643;DHT22;39546;45.534;12.048;2023-05-31T16:18:50;28.20;61.00
53643;DHT22;39546;45.534;12.048;2023-05-31T16:24:52;28.20;61.30
53643;DHT22;39546;45.534;12.048;2023-05-31T16:30:55;28.00;62.00
53643;DHT22;39546;45.534;12.048;2023-05-31T16:36:57;28.00;62.40
53643;DHT22;39546;45.534;12.048;2023-05-31T16:42:59;28.10;63.80
53643;DHT22;39546;45.534;12.048;2023-05-31T16:49:03;28.00;62.90
53643;DHT22;39546;45.534;12.048;2023-05-31T16:55:05;28.00;62.50
53643;DHT22;39546;45.534;12.048;2023-05-31T17:01:07;28.00;62.50
53643;DHT22;39546;45.534;12.048;2023-05-31T17:07:09;27.90;62.80
53643;DHT22;39546;45.534;12.048;2023-05-31T17:13:12;27.90;62.70
53643;DHT22;39546;45.534;12.048;2023-05-31T17:19:14;27.90;62.60
53643;DHT22;39546;45.534;12.048;2023-05-31T17:25:16;27.90;62.80
53643;DHT22;39546;45.534;12.048;2023-05-31T17:31:19;27.70;61.90
53643;DHT22;39546;45.534;12.048;2023-05-31T17:37:21;27.70;61.80
53643;DHT22;39546;45.534;12.048;2023-05-31T17:43:23;27.70;62.10
53643;DHT22;39546;45.534;12.048;2023-05-31T17:49:25;27.70;62.90
53643;DHT22;39546;45.534;12.048;2023-05-31T17:55:28;27.90;61.50
53643;DHT22;39546;45.534;12.048;2023-05-31T18:01:30;28.00;59.70
53643;DHT22;39546;45.534;12.048;2023-05-31T18:07:33;27.80;60.60
53643;DHT22;39546;45.534;12.048;2023-05-31T18:13:35;27.60;60.60
53643;DHT22;39546;45.534;12.048;2023-05-31T18:19:38;27.30;61.30
53643;DHT22;39546;45.534;12.048;2023-05-31T18:25:40;27.10;60.90
53643;DHT22;39546;45.534;12.048;2023-05-31T18:31:43;27.00;62.10
53643;DHT22;39546;45.534;12.048;2023-05-31T18:37:45;26.80;61.50
53643;DHT22;39546;45.534;12.048;2023-05-31T18:43:47;26.70;62.50
53643;DHT22;39546;45.534;12.048;2023-05-31T18:49:49;26.60;63.50
53643;DHT22;39546;45.534;12.048;2023-05-31T18:55:51;26.60;63.80
53643;DHT22;39546;45.534;12.048;2023-05-31T19:01:53;26.60;64.60
53643;DHT22;39546;45.534;12.048;2023-05-31T19:07:56;26.50;65.20
53643;DHT22;39546;45.534;12.048;2023-05-31T19:13:58;26.40;65.80
53643;DHT22;39546;45.534;12.048;2023-05-31T19:20:00;26.40;66.30
53643;DHT22;39546;45.534;12.048;2023-05-31T19:26:04;26.30;66.50
53643;DHT22;39546;45.534;12.048;2023-05-31T19:32:06;26.20;67.30
53643;DHT22;39546;45.534;12.048;2023-05-31T19:38:08;26.10;67.90
53643;DHT22;39546;45.534;12.048;2023-05-31T19:44:11;26.00;68.50
53643;DHT22;39546;45.534;12.048;2023-05-31T19:50:13;26.00;68.90
53643;DHT22;39546;45.534;12.048;2023-05-31T19:56:15;26.00;69.40
53643;DHT22;39546;45.534;12.048;2023-05-31T20:02:17;25.90;69.80
53643;DHT22;39546;45.534;12.048;2023-05-31T20:08:19;25.80;70.10
53643;DHT22;39546;45.534;12.048;2023-05-31T20:14:23;25.80;70.60
53643;DHT22;39546;45.534;12.048;2023-05-31T20:20:25;25.70;70.90
53643;DHT22;39546;45.534;12.048;2023-05-31T20:26:27;25.60;71.20
53643;DHT22;39546;45.534;12.048;2023-05-31T20:32:30;25.50;71.60
53643;DHT22;39546;45.534;12.048;2023-05-31T20:38:31;25.40;71.70
53643;DHT22;39546;45.534;12.048;2023-05-31T20:44:33;25.30;71.90
53643;DHT22;39546;45.534;12.048;2023-05-31T20:50:35;25.30;72.10
53643;DHT22;39546;45.534;12.048;2023-05-31T20:56:39;25.30;72.10
53643;DHT22;39546;45.534;12.048;2023-05-31T21:02:41;25.30;72.40
53643;DHT22;39546;45.534;12.048;2023-05-31T21:08:43;25.30;72.50
53643;DHT22;39546;45.534;12.048;2023-05-31T21:14:45;25.30;72.90
53643;DHT22;39546;45.534;12.048;2023-05-31T21:20:47;25.30;73.20
53643;DHT22;39546;45.534;12.048;2023-05-31T21:26:49;25.30;73.20
53643;DHT22;39546;45.534;12.048;2023-05-31T21:33:05;25.30;73.30
53643;DHT22;39546;45.534;12.048;2023-05-31T21:39:07;25.30;73.90
53643;DHT22;39546;45.534;12.048;2023-05-31T21:45:09;25.30;73.90
53643;DHT22;39546;45.534;12.048;2023-05-31T21:51:11;25.20;73.80
53643;DHT22;39546;45.534;12.048;2023-05-31T21:57:13;25.20;73.80
53643;DHT22;39546;45.534;12.048;2023-05-31T22:03:15;25.20;74.10
53643;DHT22;39546;45.534;12.048;2023-05-31T22:09:17;25.20;74.50
53643;DHT22;39546;45.534;12.048;2023-05-31T22:15:19;25.10;74.80
53643;DHT22;39546;45.534;12.048;2023-05-31T22:21:25;25.10;74.80
53643;DHT22;39546;45.534;12.048;2023-05-31T22:27:27;25.00;75.00
53643;DHT22;39546;45.534;12.048;2023-05-31T22:33:29;25.00;75.40
53643;DHT22;39546;45.534;12.048;2023-05-31T22:39:31;24.90;75.60
53643;DHT22;39546;45.534;12.048;2023-05-31T22:52:07;24.90;75.70
53643;DHT22;39546;45.534;12.048;2023-05-31T22:58:11;24.80;75.60
53643;DHT22;39546;45.534;12.048;2023-05-31T23:04:13;24.70;75.80
53643;DHT22;39546;45.534;12.048;2023-05-31T23:10:18;24.70;76.00
53643;DHT22;39546;45.534;12.048;2023-05-31T23:16:19;24.70;76.20
53643;DHT22;39546;45.534;12.048;2023-05-31T23:22:21;24.60;76.30
53643;DHT22;39546;45.534;12.048;2023-05-31T23:28:23;24.60;76.30
53643;DHT22;39546;45.534;12.048;2023-05-31T23:34:25;24.50;76.40
53643;DHT22;39546;45.534;12.048;2023-05-31T23:40:27;24.50;76.40
53643;DHT22;39546;45.534;12.048;2023-05-31T23:46:29;24.40;76.30
53643;DHT22;39546;45.534;12.048;2023-05-31T23:52:31;24.40;76.00
53643;DHT22;39546;45.534;12.048;2023-05-31T23:58:42;24.30;76.20
